Alfred, North Dakota
Current Conditions -  °F | °C
As of 11:56 AM on Thursday 18 Dec 2014 (Local Time) from KJMS Reporting Station
Overcast Overcast  
Wind Chill:   Ceiling: 1900
Heat Index: 19°   Visibility: 10mi
Dew Point: 14°   Wind: 9mph
Humidity: 81%   Direction: 170°S
Pressure: 30.12"   Gusts: NA
Location:  46.4882°N, 98.8135°W
Report Text: KJMS 181756Z AUTO 17008KT 10SM OVC019 M07/M10 A3012 RMK AO2 SLP235 T10721100 11072 21106 58004
Loading
Personal Weather Stations






























Interactive Weather Map New forecast layout! Learn more

10-Day Weather Forecast

Advertisements
Track Severe Weather on mobile